Terminal Aerodrome Forecast
Issued by NWS Greer, SC

Home | Current Version | Previous Version | Text Only | Print | Product List | Glossary On
Versions: 1 2 3 4 5 6 7 8 9 10 11 12 13 14 15 16 17 18 19 20 21 22 23 24 25 26 27 28 29 30 31 32 33 34 35 36 37 38 39 40 41
000
FTUS42 KGSP 212340
TAFCLT
TAF
KCLT 212340Z 2200/2224 07005KT P6SM OVC045
     FM220400 06007KT 6SM -RA OVC035
     FM220600 04008KT 6SM -RA OVC019
     FM220800 03009KT 5SM -RA OVC007
     FM221500 03008KT 6SM -DZ OVC004
     FM221800 04006KT P6SM OVC007=

USA.gov is the U.S. government's official web portal to all federal, state and local government web resources and services.